sensor_id;sensor_type;location;lat;lon;timestamp;P1;durP1;ratioP1;P2;durP2;ratioP2
75732;SDS011;73508;47.424;19.400;2023-10-31T00:01:02;14.02;;;7.55;;
75732;SDS011;73508;47.424;19.400;2023-10-31T00:03:28;15.57;;;7.97;;
75732;SDS011;73508;47.424;19.400;2023-10-31T00:05:53;14.60;;;8.00;;
75732;SDS011;73508;47.424;19.400;2023-10-31T00:08:18;15.53;;;8.43;;
75732;SDS011;73508;47.424;19.400;2023-10-31T00:10:44;16.67;;;8.63;;
75732;SDS011;73508;47.424;19.400;2023-10-31T00:13:10;16.67;;;8.37;;
75732;SDS011;73508;47.424;19.400;2023-10-31T00:15:36;13.90;;;8.60;;
75732;SDS011;73508;47.424;19.400;2023-10-31T00:18:01;14.47;;;7.80;;
75732;SDS011;73508;47.424;19.400;2023-10-31T00:20:27;15.43;;;7.50;;
75732;SDS011;73508;47.424;19.400;2023-10-31T00:22:53;17.27;;;8.38;;
75732;SDS011;73508;47.424;19.400;2023-10-31T00:25:18;16.50;;;8.63;;
75732;SDS011;73508;47.424;19.400;2023-10-31T00:27:44;15.90;;;8.88;;
75732;SDS011;73508;47.424;19.400;2023-10-31T00:30:10;14.93;;;8.93;;
75732;SDS011;73508;47.424;19.400;2023-10-31T00:32:35;15.00;;;8.30;;
75732;SDS011;73508;47.424;19.400;2023-10-31T00:35:01;14.83;;;8.80;;
75732;SDS011;73508;47.424;19.400;2023-10-31T00:37:26;17.37;;;8.67;;
75732;SDS011;73508;47.424;19.400;2023-10-31T00:39:52;15.13;;;8.67;;
75732;SDS011;73508;47.424;19.400;2023-10-31T00:42:17;14.57;;;8.45;;
75732;SDS011;73508;47.424;19.400;2023-10-31T00:44:42;14.50;;;8.50;;
75732;SDS011;73508;47.424;19.400;2023-10-31T00:47:08;17.17;;;8.47;;
75732;SDS011;73508;47.424;19.400;2023-10-31T00:49:34;14.75;;;8.32;;
75732;SDS011;73508;47.424;19.400;2023-10-31T00:51:59;15.57;;;8.57;;
75732;SDS011;73508;47.424;19.400;2023-10-31T00:54:24;17.43;;;8.60;;
75732;SDS011;73508;47.424;19.400;2023-10-31T00:56:50;18.87;;;8.97;;
75732;SDS011;73508;47.424;19.400;2023-10-31T00:59:15;14.07;;;8.00;;
75732;SDS011;73508;47.424;19.400;2023-10-31T01:01:42;14.30;;;8.00;;
75732;SDS011;73508;47.424;19.400;2023-10-31T01:04:07;14.73;;;8.98;;
75732;SDS011;73508;47.424;19.400;2023-10-31T01:06:33;12.83;;;9.40;;
75732;SDS011;73508;47.424;19.400;2023-10-31T01:08:58;17.77;;;8.93;;
75732;SDS011;73508;47.424;19.400;2023-10-31T01:11:24;14.30;;;9.23;;
75732;SDS011;73508;47.424;19.400;2023-10-31T01:13:49;16.83;;;8.80;;
75732;SDS011;73508;47.424;19.400;2023-10-31T01:16:15;17.75;;;8.90;;
75732;SDS011;73508;47.424;19.400;2023-10-31T01:18:40;17.23;;;8.63;;
75732;SDS011;73508;47.424;19.400;2023-10-31T01:21:05;15.43;;;8.70;;
75732;SDS011;73508;47.424;19.400;2023-10-31T01:23:31;14.33;;;8.63;;
75732;SDS011;73508;47.424;19.400;2023-10-31T01:25:56;18.00;;;8.60;;
75732;SDS011;73508;47.424;19.400;2023-10-31T01:28:21;15.77;;;9.02;;
75732;SDS011;73508;47.424;19.400;2023-10-31T01:30:47;17.80;;;8.90;;
75732;SDS011;73508;47.424;19.400;2023-10-31T01:33:12;17.03;;;8.80;;
75732;SDS011;73508;47.424;19.400;2023-10-31T01:35:38;16.07;;;9.60;;
75732;SDS011;73508;47.424;19.400;2023-10-31T01:38:03;16.47;;;9.30;;
75732;SDS011;73508;47.424;19.400;2023-10-31T01:40:28;17.05;;;8.98;;
75732;SDS011;73508;47.424;19.400;2023-10-31T01:42:54;17.33;;;9.90;;
75732;SDS011;73508;47.424;19.400;2023-10-31T01:45:20;16.52;;;9.02;;
75732;SDS011;73508;47.424;19.400;2023-10-31T01:47:46;18.50;;;9.73;;
75732;SDS011;73508;47.424;19.400;2023-10-31T01:50:13;16.25;;;9.52;;
75732;SDS011;73508;47.424;19.400;2023-10-31T01:52:38;16.73;;;9.33;;
75732;SDS011;73508;47.424;19.400;2023-10-31T01:55:04;16.40;;;9.07;;
75732;SDS011;73508;47.424;19.400;2023-10-31T01:57:30;20.35;;;10.30;;
75732;SDS011;73508;47.424;19.400;2023-10-31T01:59:55;15.80;;;8.93;;
75732;SDS011;73508;47.424;19.400;2023-10-31T02:02:22;14.13;;;8.57;;
75732;SDS011;73508;47.424;19.400;2023-10-31T02:04:48;16.35;;;9.30;;
75732;SDS011;73508;47.424;19.400;2023-10-31T02:07:14;15.67;;;9.20;;
75732;SDS011;73508;47.424;19.400;2023-10-31T02:09:39;17.55;;;8.98;;
75732;SDS011;73508;47.424;19.400;2023-10-31T02:12:05;15.67;;;9.13;;
75732;SDS011;73508;47.424;19.400;2023-10-31T02:14:30;17.03;;;9.03;;
75732;SDS011;73508;47.424;19.400;2023-10-31T02:16:56;16.60;;;8.63;;
75732;SDS011;73508;47.424;19.400;2023-10-31T02:19:21;15.60;;;8.20;;
75732;SDS011;73508;47.424;19.400;2023-10-31T02:21:47;16.87;;;9.03;;
75732;SDS011;73508;47.424;19.400;2023-10-31T02:24:12;15.83;;;8.73;;
75732;SDS011;73508;47.424;19.400;2023-10-31T02:26:37;17.47;;;8.57;;
75732;SDS011;73508;47.424;19.400;2023-10-31T02:29:03;16.10;;;8.73;;
75732;SDS011;73508;47.424;19.400;2023-10-31T02:31:29;17.30;;;8.68;;
75732;SDS011;73508;47.424;19.400;2023-10-31T02:33:54;15.40;;;8.80;;
75732;SDS011;73508;47.424;19.400;2023-10-31T02:36:20;16.55;;;8.93;;
75732;SDS011;73508;47.424;19.400;2023-10-31T02:38:45;15.77;;;8.67;;
75732;SDS011;73508;47.424;19.400;2023-10-31T02:41:11;16.40;;;8.52;;
75732;SDS011;73508;47.424;19.400;2023-10-31T02:43:37;16.17;;;8.20;;
75732;SDS011;73508;47.424;19.400;2023-10-31T02:46:03;15.45;;;9.27;;
75732;SDS011;73508;47.424;19.400;2023-10-31T02:48:28;14.93;;;7.77;;
75732;SDS011;73508;47.424;19.400;2023-10-31T02:50:56;12.93;;;8.07;;
75732;SDS011;73508;47.424;19.400;2023-10-31T02:53:22;12.55;;;7.68;;
75732;SDS011;73508;47.424;19.400;2023-10-31T02:55:48;15.00;;;8.07;;
75732;SDS011;73508;47.424;19.400;2023-10-31T02:58:13;12.45;;;8.40;;
75732;SDS011;73508;47.424;19.400;2023-10-31T03:00:39;15.63;;;8.07;;
75732;SDS011;73508;47.424;19.400;2023-10-31T03:03:04;14.17;;;7.67;;
75732;SDS011;73508;47.424;19.400;2023-10-31T03:05:30;14.23;;;7.73;;
75732;SDS011;73508;47.424;19.400;2023-10-31T03:07:55;11.90;;;7.83;;
75732;SDS011;73508;47.424;19.400;2023-10-31T03:10:21;12.77;;;7.27;;
75732;SDS011;73508;47.424;19.400;2023-10-31T03:12:46;13.87;;;7.53;;
75732;SDS011;73508;47.424;19.400;2023-10-31T03:15:12;13.13;;;7.43;;
75732;SDS011;73508;47.424;19.400;2023-10-31T03:17:37;13.30;;;6.97;;
75732;SDS011;73508;47.424;19.400;2023-10-31T03:20:03;13.07;;;7.50;;
75732;SDS011;73508;47.424;19.400;2023-10-31T03:22:28;12.93;;;7.53;;
75732;SDS011;73508;47.424;19.400;2023-10-31T03:24:54;16.83;;;7.97;;
75732;SDS011;73508;47.424;19.400;2023-10-31T03:27:19;13.30;;;7.60;;
75732;SDS011;73508;47.424;19.400;2023-10-31T03:29:45;13.30;;;7.13;;
75732;SDS011;73508;47.424;19.400;2023-10-31T03:32:11;11.93;;;7.30;;
75732;SDS011;73508;47.424;19.400;2023-10-31T03:34:37;12.73;;;7.23;;
75732;SDS011;73508;47.424;19.400;2023-10-31T03:37:03;13.25;;;7.18;;
75732;SDS011;73508;47.424;19.400;2023-10-31T03:39:28;11.40;;;6.57;;
75732;SDS011;73508;47.424;19.400;2023-10-31T03:41:54;15.35;;;7.40;;
75732;SDS011;73508;47.424;19.400;2023-10-31T03:44:20;13.53;;;7.83;;
75732;SDS011;73508;47.424;19.400;2023-10-31T03:46:45;13.90;;;7.50;;
75732;SDS011;73508;47.424;19.400;2023-10-31T03:49:11;13.27;;;6.77;;
75732;SDS011;73508;47.424;19.400;2023-10-31T03:51:36;11.93;;;6.67;;
75732;SDS011;73508;47.424;19.400;2023-10-31T03:54:01;13.15;;;7.62;;
75732;SDS011;73508;47.424;19.400;2023-10-31T03:56:27;15.57;;;7.33;;
75732;SDS011;73508;47.424;19.400;2023-10-31T03:58:52;12.80;;;8.17;;
75732;SDS011;73508;47.424;19.400;2023-10-31T04:01:18;15.33;;;7.33;;
75732;SDS011;73508;47.424;19.400;2023-10-31T04:03:43;13.70;;;7.28;;
75732;SDS011;73508;47.424;19.400;2023-10-31T04:06:09;13.00;;;7.30;;
75732;SDS011;73508;47.424;19.400;2023-10-31T04:08:34;14.77;;;7.90;;
75732;SDS011;73508;47.424;19.400;2023-10-31T04:10:59;14.37;;;8.23;;
75732;SDS011;73508;47.424;19.400;2023-10-31T04:13:25;15.70;;;8.30;;
75732;SDS011;73508;47.424;19.400;2023-10-31T04:15:50;12.73;;;7.47;;
75732;SDS011;73508;47.424;19.400;2023-10-31T04:18:16;13.43;;;7.50;;
75732;SDS011;73508;47.424;19.400;2023-10-31T04:20:42;12.52;;;7.05;;
75732;SDS011;73508;47.424;19.400;2023-10-31T04:23:07;12.47;;;7.60;;
75732;SDS011;73508;47.424;19.400;2023-10-31T04:25:33;12.50;;;7.25;;
75732;SDS011;73508;47.424;19.400;2023-10-31T04:27:58;13.57;;;7.20;;
75732;SDS011;73508;47.424;19.400;2023-10-31T04:30:24;11.83;;;6.90;;
75732;SDS011;73508;47.424;19.400;2023-10-31T04:32:49;9.43;;;6.30;;
75732;SDS011;73508;47.424;19.400;2023-10-31T04:35:15;11.57;;;6.50;;
75732;SDS011;73508;47.424;19.400;2023-10-31T04:37:40;13.80;;;6.73;;
75732;SDS011;73508;47.424;19.400;2023-10-31T04:40:06;12.13;;;6.50;;
75732;SDS011;73508;47.424;19.400;2023-10-31T04:42:32;12.18;;;6.87;;
75732;SDS011;73508;47.424;19.400;2023-10-31T04:44:58;13.65;;;6.85;;
75732;SDS011;73508;47.424;19.400;2023-10-31T04:47:24;12.30;;;6.90;;
75732;SDS011;73508;47.424;19.400;2023-10-31T04:49:50;11.35;;;7.60;;
75732;SDS011;73508;47.424;19.400;2023-10-31T04:52:15;14.13;;;6.93;;
75732;SDS011;73508;47.424;19.400;2023-10-31T04:54:42;15.13;;;7.28;;
75732;SDS011;73508;47.424;19.400;2023-10-31T04:57:07;13.50;;;7.17;;
75732;SDS011;73508;47.424;19.400;2023-10-31T04:59:33;11.90;;;6.70;;
75732;SDS011;73508;47.424;19.400;2023-10-31T05:01:58;12.43;;;7.07;;
75732;SDS011;73508;47.424;19.400;2023-10-31T05:04:23;13.13;;;7.10;;
75732;SDS011;73508;47.424;19.400;2023-10-31T05:06:49;10.57;;;7.30;;
75732;SDS011;73508;47.424;19.400;2023-10-31T05:09:14;11.63;;;7.20;;
75732;SDS011;73508;47.424;19.400;2023-10-31T05:11:40;10.70;;;6.78;;
75732;SDS011;73508;47.424;19.400;2023-10-31T05:14:07;13.57;;;7.27;;
75732;SDS011;73508;47.424;19.400;2023-10-31T05:16:43;9.80;;;6.85;;
75732;SDS011;73508;47.424;19.400;2023-10-31T05:19:09;11.47;;;7.17;;
75732;SDS011;73508;47.424;19.400;2023-10-31T05:21:35;10.68;;;7.30;;
75732;SDS011;73508;47.424;19.400;2023-10-31T05:24:00;12.40;;;7.40;;
75732;SDS011;73508;47.424;19.400;2023-10-31T05:26:26;13.63;;;7.47;;
75732;SDS011;73508;47.424;19.400;2023-10-31T05:28:53;10.50;;;7.50;;
75732;SDS011;73508;47.424;19.400;2023-10-31T05:31:19;10.98;;;6.57;;
75732;SDS011;73508;47.424;19.400;2023-10-31T05:33:44;11.93;;;6.87;;
75732;SDS011;73508;47.424;19.400;2023-10-31T05:36:19;12.70;;;6.35;;
75732;SDS011;73508;47.424;19.400;2023-10-31T05:38:46;11.52;;;6.55;;
75732;SDS011;73508;47.424;19.400;2023-10-31T05:41:12;11.53;;;6.30;;
75732;SDS011;73508;47.424;19.400;2023-10-31T05:43:37;9.32;;;6.20;;
75732;SDS011;73508;47.424;19.400;2023-10-31T05:46:03;13.13;;;6.40;;
75732;SDS011;73508;47.424;19.400;2023-10-31T05:48:28;13.63;;;6.63;;
75732;SDS011;73508;47.424;19.400;2023-10-31T05:50:56;10.95;;;6.60;;
75732;SDS011;73508;47.424;19.400;2023-10-31T05:53:21;10.40;;;6.27;;
75732;SDS011;73508;47.424;19.400;2023-10-31T05:55:46;12.27;;;7.03;;
75732;SDS011;73508;47.424;19.400;2023-10-31T05:58:12;15.93;;;6.77;;
75732;SDS011;73508;47.424;19.400;2023-10-31T06:00:37;10.27;;;6.37;;
75732;SDS011;73508;47.424;19.400;2023-10-31T06:03:03;10.83;;;5.80;;
75732;SDS011;73508;47.424;19.400;2023-10-31T06:05:28;11.00;;;6.07;;
75732;SDS011;73508;47.424;19.400;2023-10-31T06:07:54;11.85;;;5.47;;
75732;SDS011;73508;47.424;19.400;2023-10-31T06:10:20;10.37;;;5.27;;
75732;SDS011;73508;47.424;19.400;2023-10-31T06:12:46;10.20;;;5.53;;
75732;SDS011;73508;47.424;19.400;2023-10-31T06:15:12;9.57;;;5.20;;
75732;SDS011;73508;47.424;19.400;2023-10-31T06:17:37;11.37;;;5.60;;
75732;SDS011;73508;47.424;19.400;2023-10-31T06:20:03;9.10;;;5.27;;
75732;SDS011;73508;47.424;19.400;2023-10-31T06:22:28;13.25;;;5.18;;
75732;SDS011;73508;47.424;19.400;2023-10-31T06:24:54;10.37;;;5.47;;
75732;SDS011;73508;47.424;19.400;2023-10-31T06:27:19;10.00;;;5.23;;
75732;SDS011;73508;47.424;19.400;2023-10-31T06:29:44;8.43;;;4.87;;
75732;SDS011;73508;47.424;19.400;2023-10-31T06:32:10;9.00;;;5.20;;
75732;SDS011;73508;47.424;19.400;2023-10-31T06:34:35;9.87;;;4.90;;
75732;SDS011;73508;47.424;19.400;2023-10-31T06:37:01;9.80;;;5.07;;
75732;SDS011;73508;47.424;19.400;2023-10-31T06:39:26;9.87;;;4.43;;
75732;SDS011;73508;47.424;19.400;2023-10-31T06:41:54;8.87;;;4.57;;
75732;SDS011;73508;47.424;19.400;2023-10-31T06:44:21;8.88;;;4.68;;
75732;SDS011;73508;47.424;19.400;2023-10-31T06:46:46;9.67;;;4.80;;
75732;SDS011;73508;47.424;19.400;2023-10-31T06:49:11;8.63;;;4.85;;
75732;SDS011;73508;47.424;19.400;2023-10-31T06:51:37;11.23;;;5.07;;
75732;SDS011;73508;47.424;19.400;2023-10-31T06:54:02;10.03;;;5.13;;
75732;SDS011;73508;47.424;19.400;2023-10-31T06:56:28;8.97;;;5.13;;
75732;SDS011;73508;47.424;19.400;2023-10-31T06:58:53;9.25;;;5.30;;
75732;SDS011;73508;47.424;19.400;2023-10-31T07:01:19;10.37;;;5.10;;
75732;SDS011;73508;47.424;19.400;2023-10-31T07:03:48;12.32;;;5.32;;
75732;SDS011;73508;47.424;19.400;2023-10-31T07:06:13;10.63;;;5.57;;
75732;SDS011;73508;47.424;19.400;2023-10-31T07:08:38;11.43;;;6.07;;
75732;SDS011;73508;47.424;19.400;2023-10-31T07:11:04;10.87;;;6.00;;
75732;SDS011;73508;47.424;19.400;2023-10-31T07:13:30;9.77;;;5.63;;
75732;SDS011;73508;47.424;19.400;2023-10-31T07:15:55;12.60;;;5.97;;
75732;SDS011;73508;47.424;19.400;2023-10-31T07:18:21;11.80;;;5.60;;
75732;SDS011;73508;47.424;19.400;2023-10-31T07:20:46;13.60;;;5.87;;
75732;SDS011;73508;47.424;19.400;2023-10-31T07:23:12;11.73;;;5.43;;
75732;SDS011;73508;47.424;19.400;2023-10-31T07:25:37;9.80;;;5.97;;
75732;SDS011;73508;47.424;19.400;2023-10-31T07:28:02;11.93;;;5.80;;
75732;SDS011;73508;47.424;19.400;2023-10-31T07:30:28;9.93;;;5.62;;
75732;SDS011;73508;47.424;19.400;2023-10-31T07:32:53;11.10;;;6.10;;
75732;SDS011;73508;47.424;19.400;2023-10-31T07:35:19;11.60;;;7.07;;
75732;SDS011;73508;47.424;19.400;2023-10-31T07:37:45;9.07;;;5.28;;
75732;SDS011;73508;47.424;19.400;2023-10-31T07:40:10;11.33;;;5.60;;
75732;SDS011;73508;47.424;19.400;2023-10-31T07:42:36;10.52;;;5.30;;
75732;SDS011;73508;47.424;19.400;2023-10-31T07:45:02;11.73;;;5.90;;
75732;SDS011;73508;47.424;19.400;2023-10-31T07:47:27;10.15;;;5.57;;
75732;SDS011;73508;47.424;19.400;2023-10-31T07:49:53;10.67;;;5.93;;
75732;SDS011;73508;47.424;19.400;2023-10-31T07:52:18;11.30;;;6.37;;
75732;SDS011;73508;47.424;19.400;2023-10-31T07:54:44;12.05;;;6.40;;
75732;SDS011;73508;47.424;19.400;2023-10-31T07:57:09;15.50;;;6.33;;
75732;SDS011;73508;47.424;19.400;2023-10-31T07:59:35;10.90;;;4.87;;
75732;SDS011;73508;47.424;19.400;2023-10-31T08:02:01;10.27;;;5.07;;
75732;SDS011;73508;47.424;19.400;2023-10-31T08:04:27;8.63;;;4.20;;
75732;SDS011;73508;47.424;19.400;2023-10-31T08:06:55;7.93;;;4.10;;
75732;SDS011;73508;47.424;19.400;2023-10-31T08:09:21;9.55;;;4.78;;
75732;SDS011;73508;47.424;19.400;2023-10-31T08:11:46;7.53;;;4.07;;
75732;SDS011;73508;47.424;19.400;2023-10-31T08:14:12;7.20;;;4.10;;
75732;SDS011;73508;47.424;19.400;2023-10-31T08:16:37;7.12;;;3.72;;
75732;SDS011;73508;47.424;19.400;2023-10-31T08:19:02;10.67;;;3.23;;
75732;SDS011;73508;47.424;19.400;2023-10-31T08:21:28;9.53;;;3.30;;
75732;SDS011;73508;47.424;19.400;2023-10-31T08:23:59;9.15;;;3.10;;
75732;SDS011;73508;47.424;19.400;2023-10-31T08:26:24;4.95;;;2.72;;
75732;SDS011;73508;47.424;19.400;2023-10-31T08:28:50;6.70;;;2.90;;
75732;SDS011;73508;47.424;19.400;2023-10-31T08:31:16;9.13;;;3.08;;
75732;SDS011;73508;47.424;19.400;2023-10-31T08:33:42;6.60;;;2.90;;
75732;SDS011;73508;47.424;19.400;2023-10-31T08:36:07;5.83;;;2.50;;
75732;SDS011;73508;47.424;19.400;2023-10-31T08:38:33;4.82;;;2.35;;
75732;SDS011;73508;47.424;19.400;2023-10-31T08:40:59;7.30;;;3.00;;
75732;SDS011;73508;47.424;19.400;2023-10-31T08:43:24;7.35;;;2.90;;
75732;SDS011;73508;47.424;19.400;2023-10-31T08:45:49;4.23;;;2.40;;
75732;SDS011;73508;47.424;19.400;2023-10-31T08:48:15;5.00;;;2.40;;
75732;SDS011;73508;47.424;19.400;2023-10-31T08:50:41;7.20;;;2.70;;
75732;SDS011;73508;47.424;19.400;2023-10-31T08:53:06;6.22;;;2.40;;
75732;SDS011;73508;47.424;19.400;2023-10-31T08:55:31;7.43;;;3.20;;
75732;SDS011;73508;47.424;19.400;2023-10-31T08:57:57;6.10;;;2.27;;
75732;SDS011;73508;47.424;19.400;2023-10-31T09:00:22;7.60;;;2.60;;
75732;SDS011;73508;47.424;19.400;2023-10-31T09:02:48;7.40;;;2.80;;
75732;SDS011;73508;47.424;19.400;2023-10-31T09:05:13;5.67;;;2.70;;
75732;SDS011;73508;47.424;19.400;2023-10-31T09:07:39;6.72;;;2.67;;
75732;SDS011;73508;47.424;19.400;2023-10-31T09:10:05;7.80;;;2.83;;
75732;SDS011;73508;47.424;19.400;2023-10-31T09:12:31;5.93;;;2.30;;
75732;SDS011;73508;47.424;19.400;2023-10-31T09:14:57;6.00;;;2.97;;
75732;SDS011;73508;47.424;19.400;2023-10-31T09:17:22;6.50;;;2.80;;
75732;SDS011;73508;47.424;19.400;2023-10-31T09:19:47;7.43;;;2.83;;
75732;SDS011;73508;47.424;19.400;2023-10-31T09:22:13;6.57;;;2.70;;
75732;SDS011;73508;47.424;19.400;2023-10-31T09:24:38;6.10;;;2.47;;
75732;SDS011;73508;47.424;19.400;2023-10-31T09:27:05;7.87;;;3.78;;
75732;SDS011;73508;47.424;19.400;2023-10-31T09:29:30;6.55;;;2.80;;
75732;SDS011;73508;47.424;19.400;2023-10-31T09:31:56;6.00;;;2.63;;
75732;SDS011;73508;47.424;19.400;2023-10-31T09:34:21;5.47;;;2.50;;
75732;SDS011;73508;47.424;19.400;2023-10-31T09:36:47;7.50;;;2.35;;
75732;SDS011;73508;47.424;19.400;2023-10-31T09:39:12;4.73;;;2.50;;
75732;SDS011;73508;47.424;19.400;2023-10-31T09:41:38;6.20;;;2.63;;
75732;SDS011;73508;47.424;19.400;2023-10-31T09:44:03;7.23;;;2.83;;
75732;SDS011;73508;47.424;19.400;2023-10-31T09:46:29;4.90;;;2.50;;
75732;SDS011;73508;47.424;19.400;2023-10-31T09:48:55;5.27;;;2.40;;
75732;SDS011;73508;47.424;19.400;2023-10-31T09:51:20;9.27;;;3.75;;
75732;SDS011;73508;47.424;19.400;2023-10-31T09:53:46;6.00;;;2.40;;
75732;SDS011;73508;47.424;19.400;2023-10-31T09:56:12;7.37;;;2.40;;
75732;SDS011;73508;47.424;19.400;2023-10-31T09:58:39;8.05;;;2.55;;
75732;SDS011;73508;47.424;19.400;2023-10-31T10:01:06;6.22;;;2.53;;
75732;SDS011;73508;47.424;19.400;2023-10-31T10:03:32;5.33;;;2.23;;
75732;SDS011;73508;47.424;19.400;2023-10-31T10:05:58;8.90;;;2.60;;
75732;SDS011;73508;47.424;19.400;2023-10-31T10:08:24;6.50;;;2.40;;
75732;SDS011;73508;47.424;19.400;2023-10-31T10:10:50;6.57;;;2.53;;
75732;SDS011;73508;47.424;19.400;2023-10-31T10:13:22;6.10;;;2.60;;
75732;SDS011;73508;47.424;19.400;2023-10-31T10:15:48;5.82;;;2.50;;
75732;SDS011;73508;47.424;19.400;2023-10-31T10:18:24;4.57;;;2.20;;
75732;SDS011;73508;47.424;19.400;2023-10-31T10:23:22;5.00;;;2.15;;
75732;SDS011;73508;47.424;19.400;2023-10-31T10:25:50;6.20;;;2.17;;
75732;SDS011;73508;47.424;19.400;2023-10-31T10:28:16;6.43;;;2.60;;
75732;SDS011;73508;47.424;19.400;2023-10-31T10:30:41;6.07;;;2.00;;
75732;SDS011;73508;47.424;19.400;2023-10-31T10:33:06;6.50;;;2.10;;
75732;SDS011;73508;47.424;19.400;2023-10-31T10:35:32;4.57;;;1.60;;
75732;SDS011;73508;47.424;19.400;2023-10-31T10:37:59;4.87;;;2.22;;
75732;SDS011;73508;47.424;19.400;2023-10-31T10:40:25;5.07;;;2.30;;
75732;SDS011;73508;47.424;19.400;2023-10-31T10:42:50;4.37;;;2.30;;
75732;SDS011;73508;47.424;19.400;2023-10-31T10:45:21;7.57;;;2.42;;
75732;SDS011;73508;47.424;19.400;2023-10-31T10:47:48;5.63;;;2.10;;
75732;SDS011;73508;47.424;19.400;2023-10-31T10:50:15;4.80;;;2.00;;
75732;SDS011;73508;47.424;19.400;2023-10-31T10:52:53;6.57;;;2.10;;
75732;SDS011;73508;47.424;19.400;2023-10-31T10:55:25;4.90;;;1.73;;
75732;SDS011;73508;47.424;19.400;2023-10-31T11:00:30;6.40;;;2.25;;
75732;SDS011;73508;47.424;19.400;2023-10-31T11:02:56;4.10;;;2.00;;
75732;SDS011;73508;47.424;19.400;2023-10-31T11:05:23;5.75;;;2.00;;
75732;SDS011;73508;47.424;19.400;2023-10-31T11:07:49;5.30;;;1.95;;
75732;SDS011;73508;47.424;19.400;2023-10-31T11:10:15;4.87;;;2.00;;
75732;SDS011;73508;47.424;19.400;2023-10-31T11:12:42;4.50;;;1.80;;
75732;SDS011;73508;47.424;19.400;2023-10-31T11:15:08;6.10;;;2.00;;
75732;SDS011;73508;47.424;19.400;2023-10-31T11:17:36;4.80;;;2.00;;
75732;SDS011;73508;47.424;19.400;2023-10-31T11:20:03;6.20;;;2.33;;
75732;SDS011;73508;47.424;19.400;2023-10-31T11:22:39;6.57;;;1.90;;
75732;SDS011;73508;47.424;19.400;2023-10-31T11:25:20;6.28;;;2.10;;
75732;SDS011;73508;47.424;19.400;2023-10-31T11:27:49;4.57;;;1.90;;
75732;SDS011;73508;47.424;19.400;2023-10-31T11:32:52;5.67;;;1.90;;
75732;SDS011;73508;47.424;19.400;2023-10-31T11:35:18;7.12;;;1.87;;
75732;SDS011;73508;47.424;19.400;2023-10-31T11:37:43;6.83;;;1.90;;
75732;SDS011;73508;47.424;19.400;2023-10-31T11:42:38;7.27;;;2.80;;
75732;SDS011;73508;47.424;19.400;2023-10-31T11:45:04;5.62;;;2.10;;
75732;SDS011;73508;47.424;19.400;2023-10-31T11:47:48;8.68;;;2.00;;
75732;SDS011;73508;47.424;19.400;2023-10-31T11:50:15;6.20;;;2.20;;
75732;SDS011;73508;47.424;19.400;2023-10-31T11:52:41;8.55;;;2.50;;
75732;SDS011;73508;47.424;19.400;2023-10-31T11:55:10;5.20;;;2.20;;
75732;SDS011;73508;47.424;19.400;2023-10-31T11:57:36;10.10;;;2.42;;
75732;SDS011;73508;47.424;19.400;2023-10-31T12:00:02;7.05;;;2.58;;
75732;SDS011;73508;47.424;19.400;2023-10-31T12:02:29;5.80;;;2.40;;
75732;SDS011;73508;47.424;19.400;2023-10-31T12:05:15;8.63;;;2.72;;
75732;SDS011;73508;47.424;19.400;2023-10-31T12:07:43;10.82;;;3.08;;
75732;SDS011;73508;47.424;19.400;2023-10-31T12:10:09;9.50;;;2.50;;
75732;SDS011;73508;47.424;19.400;2023-10-31T12:12:35;8.23;;;2.50;;
75732;SDS011;73508;47.424;19.400;2023-10-31T12:15:10;9.88;;;2.80;;
75732;SDS011;73508;47.424;19.400;2023-10-31T12:17:35;7.90;;;2.93;;
75732;SDS011;73508;47.424;19.400;2023-10-31T12:20:05;7.62;;;2.50;;
75732;SDS011;73508;47.424;19.400;2023-10-31T12:22:32;7.95;;;3.00;;
75732;SDS011;73508;47.424;19.400;2023-10-31T12:27:41;7.75;;;3.50;;
75732;SDS011;73508;47.424;19.400;2023-10-31T12:30:14;12.07;;;3.70;;
75732;SDS011;73508;47.424;19.400;2023-10-31T12:32:41;8.47;;;3.70;;
75732;SDS011;73508;47.424;19.400;2023-10-31T12:35:08;12.63;;;3.58;;
75732;SDS011;73508;47.424;19.400;2023-10-31T12:37:41;8.52;;;3.12;;
75732;SDS011;73508;47.424;19.400;2023-10-31T12:40:15;15.40;;;3.92;;
75732;SDS011;73508;47.424;19.400;2023-10-31T12:42:42;8.13;;;3.90;;
75732;SDS011;73508;47.424;19.400;2023-10-31T12:45:08;10.77;;;3.80;;
75732;SDS011;73508;47.424;19.400;2023-10-31T12:47:34;8.98;;;4.43;;
75732;SDS011;73508;47.424;19.400;2023-10-31T12:55:16;10.63;;;4.28;;
75732;SDS011;73508;47.424;19.400;2023-10-31T12:57:42;7.82;;;4.28;;
75732;SDS011;73508;47.424;19.400;2023-10-31T13:00:09;9.57;;;4.30;;
75732;SDS011;73508;47.424;19.400;2023-10-31T13:02:36;12.30;;;4.82;;
75732;SDS011;73508;47.424;19.400;2023-10-31T13:05:09;9.27;;;4.83;;
75732;SDS011;73508;47.424;19.400;2023-10-31T13:07:37;8.60;;;5.25;;
75732;SDS011;73508;47.424;19.400;2023-10-31T13:10:07;10.30;;;5.15;;
75732;SDS011;73508;47.424;19.400;2023-10-31T13:12:35;9.13;;;4.55;;
75732;SDS011;73508;47.424;19.400;2023-10-31T13:15:01;9.00;;;5.57;;
75732;SDS011;73508;47.424;19.400;2023-10-31T13:17:26;9.90;;;5.70;;
75732;SDS011;73508;47.424;19.400;2023-10-31T13:19:53;11.88;;;6.22;;
75732;SDS011;73508;47.424;19.400;2023-10-31T13:22:18;10.63;;;6.30;;
75732;SDS011;73508;47.424;19.400;2023-10-31T13:24:44;7.62;;;5.43;;
75732;SDS011;73508;47.424;19.400;2023-10-31T13:27:10;9.30;;;6.13;;
75732;SDS011;73508;47.424;19.400;2023-10-31T13:29:40;10.27;;;5.93;;
75732;SDS011;73508;47.424;19.400;2023-10-31T13:32:05;14.73;;;5.70;;
75732;SDS011;73508;47.424;19.400;2023-10-31T13:34:31;8.20;;;4.55;;
75732;SDS011;73508;47.424;19.400;2023-10-31T13:36:58;9.85;;;4.45;;
75732;SDS011;73508;47.424;19.400;2023-10-31T13:39:23;9.57;;;4.63;;
75732;SDS011;73508;47.424;19.400;2023-10-31T13:41:49;8.60;;;4.47;;
75732;SDS011;73508;47.424;19.400;2023-10-31T13:44:14;9.35;;;4.30;;
75732;SDS011;73508;47.424;19.400;2023-10-31T13:46:40;7.67;;;3.90;;
75732;SDS011;73508;47.424;19.400;2023-10-31T13:49:05;8.97;;;4.20;;
75732;SDS011;73508;47.424;19.400;2023-10-31T13:51:32;7.82;;;3.58;;
75732;SDS011;73508;47.424;19.400;2023-10-31T13:53:57;6.73;;;3.50;;
75732;SDS011;73508;47.424;19.400;2023-10-31T13:56:23;5.32;;;2.90;;
75732;SDS011;73508;47.424;19.400;2023-10-31T13:58:48;4.50;;;2.67;;
75732;SDS011;73508;47.424;19.400;2023-10-31T14:01:14;4.60;;;2.23;;
75732;SDS011;73508;47.424;19.400;2023-10-31T14:03:39;6.60;;;2.37;;
75732;SDS011;73508;47.424;19.400;2023-10-31T14:06:05;6.80;;;2.62;;
75732;SDS011;73508;47.424;19.400;2023-10-31T14:08:30;5.53;;;2.67;;
75732;SDS011;73508;47.424;19.400;2023-10-31T14:10:56;5.87;;;3.20;;
75732;SDS011;73508;47.424;19.400;2023-10-31T14:13:22;5.30;;;2.67;;
75732;SDS011;73508;47.424;19.400;2023-10-31T14:15:48;4.53;;;2.53;;
75732;SDS011;73508;47.424;19.400;2023-10-31T14:18:13;5.50;;;2.33;;
75732;SDS011;73508;47.424;19.400;2023-10-31T14:20:40;5.28;;;2.47;;
75732;SDS011;73508;47.424;19.400;2023-10-31T14:23:06;6.00;;;2.30;;
75732;SDS011;73508;47.424;19.400;2023-10-31T14:25:32;5.40;;;2.55;;
75732;SDS011;73508;47.424;19.400;2023-10-31T14:27:57;4.73;;;2.03;;
75732;SDS011;73508;47.424;19.400;2023-10-31T14:30:23;3.63;;;2.00;;
75732;SDS011;73508;47.424;19.400;2023-10-31T14:32:48;5.47;;;1.73;;
75732;SDS011;73508;47.424;19.400;2023-10-31T14:35:14;3.17;;;1.60;;
75732;SDS011;73508;47.424;19.400;2023-10-31T14:37:40;3.72;;;1.80;;
75732;SDS011;73508;47.424;19.400;2023-10-31T14:40:06;2.97;;;1.30;;